Time;durP1;ratioP1;P1;durP2;ratioP2;P2;SDS_P1;SDS_P2;PMS_P1;PMS_P2;Temp;Humidity;BMP_temperature;BMP_pressure;BME280_temperature;BME280_humidity;BME280_pressure;Samples;Min_cycle;Max_cycle;Signal;HPM_P1;HPM_P2
2021/03/11 00:00:00;;;;;;;;;;;;;;;-2.22;60.10;100011.56;5136231;27;19934;-72
2021/03/11 00:02:27;;;;;;;;;;;;;;;-2.20;60.42;100012.50;5136177;27;19933;-71
2021/03/11 00:04:55;;;;;;;;;;;;;;;-2.19;60.27;100017.59;5136103;27;19923;-71
2021/03/11 00:07:22;;;;;;;;;;;;;;;-2.21;60.30;100014.13;5135914;27;20034;-72
2021/03/11 00:09:50;;;;;;;;;;;;;;;-2.20;60.43;100017.50;5136652;27;19931;-72
2021/03/11 00:12:19;;;;;;;;;;;;;;;-2.30;60.53;100015.28;5136289;27;20384;-72
2021/03/11 00:14:47;;;;;;;;;;;;;;;-2.35;61.48;100011.69;5136328;27;20022;-72
2021/03/11 00:17:14;;;;;;;;;;;;;;;-2.33;60.89;100020.13;5135832;27;20319;-72
2021/03/11 00:19:44;;;;;;;;;;;;;;;-2.30;61.12;100016.16;5117661;27;19972;-72
2021/03/11 00:22:12;;;;;;;;;;;;;;;-2.29;61.78;100022.00;5135824;27;20349;-72
2021/03/11 00:24:39;;;;;;;;;;;;;;;-2.33;61.99;100020.13;5135931;27;20292;-72
2021/03/11 00:27:07;;;;;;;;;;;;;;;-2.39;61.49;100020.66;5135740;27;19924;-72
2021/03/11 00:29:36;;;;;;;;;;;;;;;-2.38;61.73;100016.50;5135910;27;19923;-72
2021/03/11 00:32:04;;;;;;;;;;;;;;;-2.38;61.92;100011.50;5135681;27;19930;-71
2021/03/11 00:34:32;;;;;;;;;;;;;;;-2.34;62.26;100018.41;5135871;27;19923;-72
2021/03/11 00:36:59;;;;;;;;;;;;;;;-2.54;61.91;100021.44;5135561;27;20377;-71
2021/03/11 00:39:27;;;;;;;;;;;;;;;-2.79;62.64;100017.56;5135497;27;19969;-72
2021/03/11 00:41:54;;;;;;;;;;;;;;;-2.54;62.84;100021.44;5135493;27;19932;-72
2021/03/11 00:44:22;;;;;;;;;;;;;;;-2.30;62.17;100016.16;5135296;27;19924;-72
2021/03/11 00:46:51;;;;;;;;;;;;;;;-2.39;62.25;100024.78;5135415;27;19927;-72
2021/03/11 00:49:19;;;;;;;;;;;;;;;-2.51;62.79;100024.09;5135334;27;20430;-71
2021/03/11 00:51:47;;;;;;;;;;;;;;;-2.42;62.61;100017.09;5117059;27;19927;-72
2021/03/11 00:54:14;;;;;;;;;;;;;;;-2.39;62.55;100022.28;5134868;27;19923;-72
2021/03/11 00:56:42;;;;;;;;;;;;;;;-2.34;62.50;100024.25;5135135;27;20019;-71
2021/03/11 00:59:10;;;;;;;;;;;;;;;-2.24;62.70;100019.00;5135552;27;19923;-72
2021/03/11 01:01:38;;;;;;;;;;;;;;;-2.41;62.32;100001.34;5117058;27;19923;-71
2021/03/11 01:04:11;;;;;;;;;;;;;;;-2.66;62.97;100005.78;5116832;27;19927;-72
2021/03/11 01:06:38;;;;;;;;;;;;;;;-2.81;62.51;100006.59;5135099;27;19969;-72
2021/03/11 01:09:08;;;;;;;;;;;;;;;-2.76;63.45;100012.72;5116943;27;19923;-71
2021/03/11 01:11:36;;;;;;;;;;;;;;;-2.76;63.14;100012.72;5135051;27;19930;-71
2021/03/11 01:14:05;;;;;;;;;;;;;;;-2.62;63.53;100011.03;5135075;27;19924;-72
2021/03/11 01:16:32;;;;;;;;;;;;;;;-2.54;63.11;100011.44;5134971;28;20381;-72
2021/03/11 01:19:00;;;;;;;;;;;;;;;-2.61;62.90;100010.22;5134462;27;19958;-72
2021/03/11 01:21:29;;;;;;;;;;;;;;;-2.75;63.61;99999.47;5116654;28;19923;-71
2021/03/11 01:23:57;;;;;;;;;;;;;;;-2.83;63.57;99989.81;5135185;28;20023;-71
2021/03/11 01:26:26;;;;;;;;;;;;;;;-2.91;63.86;99991.91;5135005;28;20361;-72
2021/03/11 01:28:54;;;;;;;;;;;;;;;-3.01;63.70;99992.13;5135768;28;19953;-71
2021/03/11 01:31:22;;;;;;;;;;;;;;;-3.14;63.79;99986.38;5134893;28;19977;-71
2021/03/11 01:33:49;;;;;;;;;;;;;;;-3.19;63.69;99983.56;5134751;28;19931;-71
2021/03/11 01:36:17;;;;;;;;;;;;;;;-3.05;64.27;99977.78;5134812;28;19927;-71
2021/03/11 01:38:45;;;;;;;;;;;;;;;-2.95;64.11;99975.00;5134726;28;19923;-71
2021/03/11 01:41:13;;;;;;;;;;;;;;;-3.01;64.22;99964.69;5134733;28;19959;-71
2021/03/11 01:43:41;;;;;;;;;;;;;;;-3.17;64.28;99972.06;5134625;28;19972;-71
2021/03/11 01:46:08;;;;;;;;;;;;;;;-3.41;64.40;99970.66;5134778;28;19923;-72
2021/03/11 01:48:36;;;;;;;;;;;;;;;-3.38;64.80;99969.19;5134877;28;19955;-71
2021/03/11 01:51:05;;;;;;;;;;;;;;;-3.35;64.95;99961.00;5134671;28;19945;-71
2021/03/11 01:53:32;;;;;;;;;;;;;;;-3.52;64.57;99956.66;5134407;28;20018;-71
2021/03/11 01:56:01;;;;;;;;;;;;;;;-3.54;65.05;99963.22;5134702;28;20362;-71
2021/03/11 01:58:28;;;;;;;;;;;;;;;-3.36;65.74;99953.44;5134639;28;19924;-72
2021/03/11 02:00:56;;;;;;;;;;;;;;;-3.25;65.10;99948.31;5134617;28;19938;-72
2021/03/11 02:03:24;;;;;;;;;;;;;;;-3.25;65.16;99948.31;5134351;28;19923;-71
2021/03/11 02:05:52;;;;;;;;;;;;;;;-3.30;65.61;99941.31;5134844;28;20015;-72
2021/03/11 02:08:19;;;;;;;;;;;;;;;-3.21;65.13;99945.19;5134509;28;20270;-71
2021/03/11 02:10:48;;;;;;;;;;;;;;;-3.26;65.60;99941.59;5134477;28;19958;-72
2021/03/11 02:13:26;;;;;;;;;;;;;;;-3.44;65.10;99941.41;5134764;28;19924;-71
2021/03/11 02:15:56;;;;;;;;;;;;;;;-3.59;65.29;99934.66;5134761;28;19946;-71
2021/03/11 02:18:26;;;;;;;;;;;;;;;-3.52;66.06;99936.72;5134497;28;20284;-71
2021/03/11 02:20:59;;;;;;;;;;;;;;;-3.41;65.76;99943.22;5135046;28;19927;-71
2021/03/11 02:23:35;;;;;;;;;;;;;;;-3.21;66.27;99950.19;5134972;28;19928;-71
2021/03/11 02:26:10;;;;;;;;;;;;;;;-3.23;65.29;99946.75;5134357;28;19923;-71
2021/03/11 02:28:42;;;;;;;;;;;;;;;-3.22;65.57;99937.66;5134692;28;19946;-71
2021/03/11 02:31:10;;;;;;;;;;;;;;;-3.30;65.49;99942.19;5136212;27;19932;-72
2021/03/11 02:33:38;;;;;;;;;;;;;;;-3.42;65.44;99936.50;5138277;27;19969;-72
2021/03/11 02:36:06;;;;;;;;;;;;;;;-3.47;65.55;99937.84;5138015;27;19923;-71
2021/03/11 02:38:35;;;;;;;;;;;;;;;-3.53;65.58;99935.84;5141273;27;20396;-71
2021/03/11 02:41:03;;;;;;;;;;;;;;;-3.45;65.88;99938.78;5137670;27;19923;-71
2021/03/11 02:43:30;;;;;;;;;;;;;;;-3.42;65.98;99929.00;5137648;27;19927;-72
2021/03/11 02:45:59;;;;;;;;;;;;;;;-3.53;65.96;99928.38;5137764;27;19931;-71
2021/03/11 02:48:29;;;;;;;;;;;;;;;-3.64;66.03;99923.53;5137956;27;19930;-71
2021/03/11 02:50:58;;;;;;;;;;;;;;;-3.61;66.29;99928.72;5137733;27;19923;-71
2021/03/11 02:53:26;;;;;;;;;;;;;;;-3.64;66.21;99931.00;5137352;27;19923;-71
2021/03/11 02:55:57;;;;;;;;;;;;;;;-3.44;66.45;99928.06;5137675;27;20010;-71
2021/03/11 02:58:25;;;;;;;;;;;;;;;-3.30;66.34;99923.84;5137488;27;20373;-71
2021/03/11 03:00:54;;;;;;;;;;;;;;;-3.30;66.19;99934.69;5137491;27;19930;-71
2021/03/11 03:03:22;;;;;;;;;;;;;;;-3.43;65.61;99932.25;5137333;27;20384;-71
2021/03/11 03:05:52;;;;;;;;;;;;;;;-3.42;66.28;99934.00;5137339;27;19931;-71
2021/03/11 03:08:21;;;;;;;;;;;;;;;-3.41;66.17;99926.59;5137306;27;19927;-71
2021/03/11 03:10:48;;;;;;;;;;;;;;;-3.40;65.71;99934.94;5137156;27;19923;-71
2021/03/11 03:13:17;;;;;;;;;;;;;;;-3.58;66.08;99931.38;5137183;27;19972;-71
2021/03/11 03:15:45;;;;;;;;;;;;;;;-3.58;65.82;99931.38;5137325;27;20010;-71
2021/03/11 03:18:15;;;;;;;;;;;;;;;-3.53;66.06;99933.34;5137127;27;19927;-72
2021/03/11 03:20:43;;;;;;;;;;;;;;;-3.53;66.02;99935.84;5137026;27;19923;-72
2021/03/11 03:23:12;;;;;;;;;;;;;;;-3.56;65.97;99937.31;5136969;27;19947;-71
2021/03/11 03:25:48;;;;;;;;;;;;;;;-3.40;66.69;99938.31;5119020;27;19930;-71
2021/03/11 03:28:16;;;;;;;;;;;;;;;-3.29;65.85;99931.44;5137802;27;19924;-72
2021/03/11 03:30:44;;;;;;;;;;;;;;;-3.46;65.83;99937.97;5136988;27;19969;-72
2021/03/11 03:33:12;;;;;;;;;;;;;;;-3.47;66.31;99928.75;5136801;27;20446;-71
2021/03/11 03:35:40;;;;;;;;;;;;;;;-3.46;65.73;99927.13;5118652;27;20023;-72
2021/03/11 03:38:08;;;;;;;;;;;;;;;-3.40;66.30;99927.47;5136703;27;19931;-71
2021/03/11 03:40:37;;;;;;;;;;;;;;;-3.50;65.92;99928.56;5136820;27;20337;-71
2021/03/11 03:43:06;;;;;;;;;;;;;;;-3.51;65.87;99921.00;5118020;27;19924;-71
2021/03/11 03:45:35;;;;;;;;;;;;;;;-3.56;66.01;99915.75;5136482;27;19929;-71
2021/03/11 03:48:05;;;;;;;;;;;;;;;-3.55;65.80;99917.44;5136442;27;19929;-71
2021/03/11 03:50:33;;;;;;;;;;;;;;;-3.59;66.40;99922.19;5136572;27;19930;-72
2021/03/11 03:53:03;;;;;;;;;;;;;;;-3.53;66.96;99920.88;5136286;27;19927;-71
2021/03/11 03:55:31;;;;;;;;;;;;;;;-3.34;67.07;99902.88;5136572;27;19928;-71
2021/03/11 03:57:59;;;;;;;;;;;;;;;-3.12;66.30;99900.81;5136551;27;19924;-71
2021/03/11 04:00:28;;;;;;;;;;;;;;;-2.96;66.03;99907.53;5136279;27;20373;-72
2021/03/11 04:02:56;;;;;;;;;;;;;;;-2.87;65.84;99910.53;5117903;27;20014;-72
2021/03/11 04:05:24;;;;;;;;;;;;;;;-2.83;65.92;99910.78;5117828;27;19923;-71
2021/03/11 04:07:53;;;;;;;;;;;;;;;-2.86;65.61;99913.13;5136145;27;19945;-71
2021/03/11 04:10:21;;;;;;;;;;;;;;;-3.08;65.45;99916.81;5136064;27;19934;-72
2021/03/11 04:12:49;;;;;;;;;;;;;;;-3.32;65.17;99911.31;5136354;27;19923;-71
2021/03/11 04:15:17;;;;;;;;;;;;;;;-3.49;65.72;99906.97;5135975;27;19923;-71
2021/03/11 04:17:46;;;;;;;;;;;;;;;-3.48;66.21;99904.56;5136635;27;19949;-71
2021/03/11 04:20:14;;;;;;;;;;;;;;;-3.43;66.21;99907.31;5136182;27;19952;-71
2021/03/11 04:22:47;;;;;;;;;;;;;;;-3.32;66.74;99910.44;5135930;27;20387;-72
2021/03/11 04:25:14;;;;;;;;;;;;;;;-3.28;66.70;99908.19;5135619;27;19924;-71
2021/03/11 04:27:42;;;;;;;;;;;;;;;-3.25;66.60;99908.38;5135918;27;19969;-72
2021/03/11 04:30:10;;;;;;;;;;;;;;;-3.25;66.17;99908.38;5135614;27;19946;-72
2021/03/11 04:32:39;;;;;;;;;;;;;;;-3.19;66.24;99902.88;5135630;27;20377;-71
2021/03/11 04:35:08;;;;;;;;;;;;;;;-3.21;66.51;99905.28;5135296;27;19934;-72
2021/03/11 04:37:38;;;;;;;;;;;;;;;-3.27;66.54;99909.94;5135639;27;19930;-72
2021/03/11 04:40:07;;;;;;;;;;;;;;;-3.16;66.54;99913.88;5135486;27;19923;-71
2021/03/11 04:42:35;;;;;;;;;;;;;;;-3.01;66.76;99913.91;5135465;27;20270;-72
2021/03/11 04:45:04;;;;;;;;;;;;;;;-2.89;66.28;99910.44;5116907;27;19923;-72
2021/03/11 04:47:33;;;;;;;;;;;;;;;-2.84;65.52;99909.06;5135380;27;19963;-71
2021/03/11 04:50:02;;;;;;;;;;;;;;;-3.13;66.02;99873.28;5135307;27;19933;-72
2021/03/11 04:52:29;;;;;;;;;;;;;;;-3.02;65.64;99905.53;5116563;27;19973;-71
2021/03/11 04:54:57;;;;;;;;;;;;;;;-3.08;66.04;99902.72;5135033;27;20045;-71
2021/03/11 04:57:27;;;;;;;;;;;;;;;-3.05;66.11;99912.00;5135149;27;20365;-71
2021/03/11 04:59:56;;;;;;;;;;;;;;;-2.88;65.65;99906.31;5135228;27;20403;-72
2021/03/11 05:02:26;;;;;;;;;;;;;;;-2.76;65.20;99902.84;5116904;27;19946;-72
2021/03/11 05:04:54;;;;;;;;;;;;;;;-2.81;64.85;99910.88;5135086;27;19927;-72
2021/03/11 05:07:23;;;;;;;;;;;;;;;-3.17;65.38;99912.19;5135035;27;19930;-72
2021/03/11 05:09:51;;;;;;;;;;;;;;;-3.18;65.11;99915.44;5117009;27;19928;-72
2021/03/11 05:12:19;;;;;;;;;;;;;;;-3.14;65.82;99907.34;5134974;27;19923;-71
2021/03/11 05:14:46;;;;;;;;;;;;;;;-3.09;65.43;99915.94;5134980;27;19931;-71
2021/03/11 05:17:14;;;;;;;;;;;;;;;-3.11;65.29;99917.50;5134948;28;20030;-71
2021/03/11 05:19:42;;;;;;;;;;;;;;;-3.26;65.32;99915.78;5134876;28;19927;-71
2021/03/11 05:22:09;;;;;;;;;;;;;;;-3.27;65.64;99919.91;5134908;28;19923;-71
2021/03/11 05:24:38;;;;;;;;;;;;;;;-3.27;65.83;99924.91;5134688;28;20426;-71
2021/03/11 05:27:18;;;;;;;;;;;;;;;-3.16;66.35;99925.50;5134923;28;19923;-72
2021/03/11 05:29:45;;;;;;;;;;;;;;;-3.19;66.06;99917.88;5134486;28;20014;-72
2021/03/11 05:32:13;;;;;;;;;;;;;;;-3.24;65.95;99910.13;5134770;28;20258;-72
2021/03/11 05:34:41;;;;;;;;;;;;;;;-3.38;66.16;99908.44;5135390;28;19963;-72
2021/03/11 05:37:09;;;;;;;;;;;;;;;-3.24;66.67;99914.25;5134665;28;19947;-71
2021/03/11 05:39:38;;;;;;;;;;;;;;;-2.98;66.98;99907.44;5134826;28;19930;-71
2021/03/11 05:42:09;;;;;;;;;;;;;;;-2.91;66.39;99907.00;5134612;28;19923;-72
2021/03/11 05:44:38;;;;;;;;;;;;;;;-2.93;66.74;99906.03;5134645;28;20361;-72
2021/03/11 05:47:07;;;;;;;;;;;;;;;-2.67;66.69;99901.63;5134779;28;20364;-71
2021/03/11 05:49:35;;;;;;;;;;;;;;;-2.54;66.31;99904.03;5116405;28;19961;-72
2021/03/11 05:52:03;;;;;;;;;;;;;;;-2.47;66.21;99896.94;5134635;28;19923;-72
2021/03/11 05:54:31;;;;;;;;;;;;;;;-2.59;66.09;99900.44;5134466;28;19934;-72
2021/03/11 05:57:00;;;;;;;;;;;;;;;-2.43;66.17;99902.97;5116255;28;20018;-72
2021/03/11 05:59:29;;;;;;;;;;;;;;;-2.46;65.72;99887.81;5134371;28;20261;-72
2021/03/11 06:01:59;;;;;;;;;;;;;;;-2.32;65.64;99889.38;5134742;28;20022;-72
2021/03/11 06:04:27;;;;;;;;;;;;;;;-2.16;65.48;99889.44;5135353;27;19931;-72
2021/03/11 06:06:54;;;;;;;;;;;;;;;-1.99;64.82;99890.31;5138480;27;19923;-72
2021/03/11 06:09:22;;;;;;;;;;;;;;;-1.94;64.61;99892.25;5138301;27;19930;-72
2021/03/11 06:11:50;;;;;;;;;;;;;;;-1.78;64.74;99884.78;5138346;27;19923;-72
2021/03/11 06:14:18;;;;;;;;;;;;;;;-1.72;64.42;99885.06;5138320;27;19930;-72
2021/03/11 06:16:50;;;;;;;;;;;;;;;-1.65;64.47;99882.09;5138277;27;19930;-72
2021/03/11 06:19:18;;;;;;;;;;;;;;;-1.62;64.53;99887.25;5138369;27;19923;-71
2021/03/11 06:21:46;;;;;;;;;;;;;;;-1.54;64.10;99881.00;5138320;27;20365;-72
2021/03/11 06:24:13;;;;;;;;;;;;;;;-1.54;63.88;99881.00;5138639;27;20365;-72
2021/03/11 06:26:41;;;;;;;;;;;;;;;-1.52;63.72;99891.94;5137981;27;19927;-72
2021/03/11 06:29:09;;;;;;;;;;;;;;;-1.48;63.77;99881.28;5138087;27;19923;-72
2021/03/11 06:31:38;;;;;;;;;;;;;;;-1.51;63.79;99886.13;5138252;27;20356;-72
2021/03/11 06:34:19;;;;;;;;;;;;;;;-1.46;63.37;99884.72;5137922;27;19962;-72
2021/03/11 06:36:47;;;;;;;;;;;;;;;-1.36;63.20;99896.91;5137945;27;19930;-72
2021/03/11 06:39:26;;;;;;;;;;;;;;;-1.21;63.34;99890.94;5137763;27;19961;-72
2021/03/11 06:41:55;;;;;;;;;;;;;;;-1.01;62.85;99887.75;5137827;27;19945;-72
2021/03/11 06:44:33;;;;;;;;;;;;;;;-0.84;62.49;99889.44;5137611;27;20265;-72
2021/03/11 06:47:01;;;;;;;;;;;;;;;-0.60;62.10;99888.03;5137950;27;19923;-72
2021/03/11 06:49:30;;;;;;;;;;;;;;;-0.43;61.84;99893.88;5137688;27;19968;-72
2021/03/11 06:52:09;;;;;;;;;;;;;;;-0.25;61.29;99903.06;5137484;27;19924;-72
2021/03/11 06:54:48;;;;;;;;;;;;;;;-0.04;60.80;99893.13;5137542;27;20404;-73
2021/03/11 06:57:24;;;;;;;;;;;;;;;0.20;60.72;99895.84;5137555;27;19957;-74
2021/03/11 06:59:53;;;;;;;;;;;;;;;0.52;60.39;99901.47;5137493;27;20300;-74
2021/03/11 07:02:21;;;;;;;;;;;;;;;0.75;60.44;99907.44;5137380;27;19981;-74
2021/03/11 07:04:50;;;;;;;;;;;;;;;0.99;59.74;99903.41;5137246;27;19945;-74
2021/03/11 07:07:19;;;;;;;;;;;;;;;1.14;59.33;99896.50;5137310;27;19923;-73
2021/03/11 07:09:48;;;;;;;;;;;;;;;1.06;57.67;99892.81;5137266;27;19923;-73
2021/03/11 07:12:16;;;;;;;;;;;;;;;0.93;57.68;99895.66;5137117;27;19923;-72
2021/03/11 07:14:43;;;;;;;;;;;;;;;0.95;57.15;99884.00;5137150;27;19923;-73
2021/03/11 07:17:22;;;;;;;;;;;;;;;0.98;57.28;99889.16;5136168;27;19927;-73
2021/03/11 07:20:01;;;;;;;;;;;;;;;1.20;56.91;99886.69;5136997;27;20021;-72
2021/03/11 07:22:30;;;;;;;;;;;;;;;1.47;56.22;99883.50;5137215;27;20293;-72
2021/03/11 07:24:58;;;;;;;;;;;;;;;1.53;56.19;99871.19;5118550;27;19923;-73
2021/03/11 07:27:26;;;;;;;;;;;;;;;1.62;55.53;99876.56;5137089;27;19966;-72
2021/03/11 07:30:01;;;;;;;;;;;;;;;1.77;55.77;99880.53;5136855;27;19930;-73
2021/03/11 07:32:29;;;;;;;;;;;;;;;1.91;55.85;99881.03;5136962;27;19924;-73
2021/03/11 07:34:57;;;;;;;;;;;;;;;2.02;55.56;99875.56;5136745;27;19923;-72
2021/03/11 07:37:27;;;;;;;;;;;;;;;2.13;55.45;99870.06;5136762;27;19927;-73
2021/03/11 07:39:59;;;;;;;;;;;;;;;2.30;55.39;99872.38;5136545;27;19927;-73
2021/03/11 07:42:27;;;;;;;;;;;;;;;2.35;54.01;99880.94;5137005;27;19923;-73
2021/03/11 07:44:54;;;;;;;;;;;;;;;2.38;53.30;99876.00;5136477;27;19923;-73
2021/03/11 07:47:24;;;;;;;;;;;;;;;2.65;53.58;99874.44;5118481;27;19930;-72
2021/03/11 07:49:53;;;;;;;;;;;;;;;2.87;53.01;99858.34;5136540;27;19930;-72
2021/03/11 07:52:21;;;;;;;;;;;;;;;2.94;52.54;99845.16;5136358;27;19992;-73
2021/03/11 07:54:50;;;;;;;;;;;;;;;3.08;52.34;99838.00;5136231;27;20379;-72
2021/03/11 07:57:19;;;;;;;;;;;;;;;3.11;51.74;99843.16;5136620;27;20388;-73
2021/03/11 07:59:47;;;;;;;;;;;;;;;3.15;51.05;99834.88;5136320;27;19924;-72
2021/03/11 08:02:18;;;;;;;;;;;;;;;3.06;50.41;99835.44;5136191;27;19930;-72
2021/03/11 08:04:46;;;;;;;;;;;;;;;3.14;50.42;99835.69;5136149;27;19972;-72
2021/03/11 08:07:15;;;;;;;;;;;;;;;3.39;49.27;99833.09;5135962;27;19924;-72
2021/03/11 08:09:44;;;;;;;;;;;;;;;3.43;48.27;99826.50;5136494;27;19923;-72
2021/03/11 08:12:22;;;;;;;;;;;;;;;3.36;48.38;99831.34;5136275;27;19928;-73
2021/03/11 08:14:51;;;;;;;;;;;;;;;3.30;48.13;99827.78;5136211;27;19963;-72
2021/03/11 08:17:30;;;;;;;;;;;;;;;3.42;47.46;99824.75;5135917;27;19924;-72
2021/03/11 08:19:58;;;;;;;;;;;;;;;3.63;47.40;99816.16;5135848;27;20395;-72
2021/03/11 08:22:37;;;;;;;;;;;;;;;3.95;47.83;99815.41;5135844;27;20035;-73
2021/03/11 08:25:05;;;;;;;;;;;;;;;4.07;46.93;99810.69;5135632;27;20382;-72
2021/03/11 08:27:43;;;;;;;;;;;;;;;4.10;47.09;99804.00;5135569;27;20377;-73
2021/03/11 08:30:26;;;;;;;;;;;;;;;4.43;46.47;99809.94;5117728;27;19963;-72
2021/03/11 08:32:55;;;;;;;;;;;;;;;4.56;46.45;99796.78;5135179;27;19930;-73
2021/03/11 08:35:34;;;;;;;;;;;;;;;4.42;45.28;99793.91;5135409;27;19923;-73
2021/03/11 08:38:02;;;;;;;;;;;;;;;4.38;45.95;99796.31;5135595;27;19972;-73
2021/03/11 08:40:33;;;;;;;;;;;;;;;4.33;45.55;99792.81;5135486;27;19923;-73
2021/03/11 08:43:01;;;;;;;;;;;;;;;4.42;45.57;99795.59;5135335;27;19928;-73
2021/03/11 08:45:40;;;;;;;;;;;;;;;4.57;45.79;99793.44;5135564;27;19924;-74
2021/03/11 08:48:13;;;;;;;;;;;;;;;4.82;45.37;99788.19;5116653;27;20409;-73
2021/03/11 08:50:41;;;;;;;;;;;;;;;5.06;45.65;99792.94;5135393;27;19973;-73
2021/03/11 08:53:08;;;;;;;;;;;;;;;5.27;44.98;99791.75;5135063;27;19930;-73
2021/03/11 08:55:37;;;;;;;;;;;;;;;5.36;44.53;99781.81;5135133;27;19923;-73
2021/03/11 08:58:25;;;;;;;;;;;;;;;5.46;44.74;99777.81;5134426;27;21441;-72
2021/03/11 09:00:59;;;;;;;;;;;;;;;5.53;44.34;99769.53;5135314;27;19927;-72
2021/03/11 09:03:42;;;;;;;;;;;;;;;5.35;43.83;99775.03;5135788;27;20323;-72
2021/03/11 09:06:12;;;;;;;;;;;;;;;5.22;43.12;99762.97;5132569;27;19923;-72
2021/03/11 09:08:47;;;;;;;;;;;;;;;5.22;42.59;99773.09;5135295;27;19970;-72
2021/03/11 09:11:16;;;;;;;;;;;;;;;5.30;43.23;99756.38;5135325;27;20327;-73
2021/03/11 09:13:44;;;;;;;;;;;;;;;5.32;43.21;99757.28;5134927;27;19977;-72
2021/03/11 09:16:11;;;;;;;;;;;;;;;5.49;43.64;99766.91;5135503;27;19931;-73
2021/03/11 09:18:39;;;;;;;;;;;;;;;5.55;43.07;99767.00;5134930;28;20301;-72
2021/03/11 09:21:08;;;;;;;;;;;;;;;5.35;42.36;99754.81;5116580;28;19923;-71
2021/03/11 09:23:38;;;;;;;;;;;;;;;5.26;42.61;99764.72;5135101;28;19924;-73
2021/03/11 09:26:07;;;;;;;;;;;;;;;5.37;42.70;99752.31;5134637;28;19924;-72
2021/03/11 09:28:34;;;;;;;;;;;;;;;5.53;42.50;99754.34;5135058;28;19924;-73
2021/03/11 09:31:02;;;;;;;;;;;;;;;5.48;41.98;99750.00;5116465;28;19927;-73
2021/03/11 09:33:37;;;;;;;;;;;;;;;5.29;42.94;99763.94;5134931;28;19968;-72
2021/03/11 09:36:09;;;;;;;;;;;;;;;5.34;42.95;99753.09;5134829;28;20365;-72
2021/03/11 09:38:40;;;;;;;;;;;;;;;5.56;42.88;99735.84;5134863;27;19923;-72
2021/03/11 09:41:08;;;;;;;;;;;;;;;5.60;42.53;99735.06;5138668;27;19928;-72
2021/03/11 09:43:37;;;;;;;;;;;;;;;5.74;42.23;99724.38;5138952;27;19930;-72
2021/03/11 09:46:08;;;;;;;;;;;;;;;5.79;42.05;99719.41;5138762;27;19962;-72
2021/03/11 09:48:38;;;;;;;;;;;;;;;5.83;41.66;99708.53;5120499;27;19963;-73
2021/03/11 09:51:08;;;;;;;;;;;;;;;5.80;41.80;99695.78;5139230;27;19958;-72
2021/03/11 09:53:41;;;;;;;;;;;;;;;5.95;41.88;99691.03;5138452;27;19923;-73
2021/03/11 09:56:11;;;;;;;;;;;;;;;6.07;41.52;99696.28;5138657;27;19923;-72
2021/03/11 09:58:43;;;;;;;;;;;;;;;5.98;41.57;99693.59;5120828;27;19923;-72
2021/03/11 10:01:10;;;;;;;;;;;;;;;6.00;41.04;99686.88;5138907;27;20427;-72
2021/03/11 10:03:39;;;;;;;;;;;;;;;5.96;41.93;99685.13;5138689;27;19923;-72
2021/03/11 10:06:07;;;;;;;;;;;;;;;5.84;41.74;99677.28;5138394;27;20334;-72
2021/03/11 10:08:36;;;;;;;;;;;;;;;5.77;42.64;99661.13;5138505;27;19923;-71
2021/03/11 10:11:06;;;;;;;;;;;;;;;5.70;42.85;99669.44;5138412;27;19923;-73
2021/03/11 10:13:35;;;;;;;;;;;;;;;5.69;42.60;99659.28;5138390;27;19930;-72
2021/03/11 10:16:03;;;;;;;;;;;;;;;5.73;42.84;99648.41;5138303;27;20262;-72
2021/03/11 10:18:31;;;;;;;;;;;;;;;5.73;42.75;99635.75;5119751;27;19923;-72
2021/03/11 10:21:00;;;;;;;;;;;;;;;5.72;43.08;99629.81;5138241;27;19955;-72
2021/03/11 10:23:28;;;;;;;;;;;;;;;5.67;43.42;99630.56;5138004;27;19938;-73
2021/03/11 10:26:06;;;;;;;;;;;;;;;5.70;43.32;99631.47;5138469;27;19923;-72
2021/03/11 10:28:35;;;;;;;;;;;;;;;5.74;43.29;99629.84;5138967;27;19946;-72
2021/03/11 10:31:05;;;;;;;;;;;;;;;5.68;43.61;99639.88;5138301;27;19930;-72
2021/03/11 10:33:34;;;;;;;;;;;;;;;5.55;44.22;99648.06;5137865;27;19993;-73
2021/03/11 10:36:12;;;;;;;;;;;;;;;5.46;44.43;99650.41;5137819;27;19923;-72
2021/03/11 10:38:41;;;;;;;;;;;;;;;5.36;44.30;99647.72;5137948;27;19923;-71
2021/03/11 10:41:10;;;;;;;;;;;;;;;5.22;44.34;99640.69;5137826;27;20392;-72
2021/03/11 10:43:38;;;;;;;;;;;;;;;5.22;44.63;99628.88;5138106;27;19923;-72
2021/03/11 10:46:06;;;;;;;;;;;;;;;5.24;44.17;99613.72;5137703;27;19923;-72
2021/03/11 10:48:44;;;;;;;;;;;;;;;5.10;44.12;99613.47;5137447;27;20010;-73
2021/03/11 10:51:16;;;;;;;;;;;;;;;5.04;43.42;99599.84;5136384;27;20296;-72
2021/03/11 10:53:44;;;;;;;;;;;;;;;5.00;44.12;99582.91;5137334;27;19930;-73
2021/03/11 10:56:12;;;;;;;;;;;;;;;4.99;44.24;99581.22;5137665;27;19927;-72
2021/03/11 10:58:41;;;;;;;;;;;;;;;4.99;45.00;99576.16;5084871;27;19927;-73
2021/03/11 11:01:25;;;;;;;;;;;;;;;5.09;44.92;99558.63;5137535;27;19928;-73
2021/03/11 11:03:55;;;;;;;;;;;;;;;5.22;45.81;99550.47;5119517;27;20266;-72
2021/03/11 11:06:23;;;;;;;;;;;;;;;5.29;45.86;99549.75;5118960;27;19927;-72
2021/03/11 11:08:50;;;;;;;;;;;;;;;5.32;45.85;99547.28;5137270;27;19930;-71
2021/03/11 11:11:19;;;;;;;;;;;;;;;5.24;44.69;99547.94;5118826;27;19977;-72
2021/03/11 11:13:48;;;;;;;;;;;;;;;5.22;44.65;99547.94;5137199;27;19975;-70
2021/03/11 11:16:16;;;;;;;;;;;;;;;5.20;45.05;99557.19;5137240;27;19923;-72
2021/03/11 11:18:44;;;;;;;;;;;;;;;5.22;44.53;99542.03;5137073;27;19969;-72
2021/03/11 11:21:12;;;;;;;;;;;;;;;5.19;44.45;99525.09;5137107;27;20303;-72
2021/03/11 11:23:40;;;;;;;;;;;;;;;5.22;44.48;99504.94;5136954;27;20310;-73
2021/03/11 11:26:08;;;;;;;;;;;;;;;5.36;44.15;99500.97;5136893;27;19923;-72
2021/03/11 11:28:35;;;;;;;;;;;;;;;5.38;44.27;99491.72;5137442;27;19954;-72
2021/03/11 11:31:04;;;;;;;;;;;;;;;5.48;44.12;99486.78;5136877;27;20388;-73
2021/03/11 11:33:32;;;;;;;;;;;;;;;5.46;43.86;99468.22;5136808;27;19977;-73
2021/03/11 11:36:00;;;;;;;;;;;;;;;5.49;43.62;99478.38;5136762;27;19924;-72
2021/03/11 11:38:28;;;;;;;;;;;;;;;5.46;43.29;99480.84;5136684;27;19923;-72
2021/03/11 11:40:56;;;;;;;;;;;;;;;5.47;43.70;99470.75;5136455;27;19923;-72
2021/03/11 11:43:24;;;;;;;;;;;;;;;5.51;43.87;99472.53;5136579;27;19927;-72
2021/03/11 11:45:51;;;;;;;;;;;;;;;5.52;43.86;99464.09;5118216;27;19930;-70
2021/03/11 11:48:20;;;;;;;;;;;;;;;5.51;43.73;99466.59;5136557;27;19927;-71
2021/03/11 11:50:52;;;;;;;;;;;;;;;5.47;43.76;99474.97;5118111;27;19924;-71
2021/03/11 11:53:20;;;;;;;;;;;;;;;5.52;44.07;99474.22;5136237;27;20373;-71
2021/03/11 11:55:48;;;;;;;;;;;;;;;5.48;43.73;99471.59;5115860;27;19927;-72
2021/03/11 11:58:16;;;;;;;;;;;;;;;5.49;44.53;99479.25;5115757;28;19946;-72
2021/03/11 12:00:44;;;;;;;;;;;;;;;5.55;44.05;99468.34;5115781;28;19924;-72
2021/03/11 12:03:11;;;;;;;;;;;;;;;5.59;44.25;99465.06;5115366;28;19923;-71
2021/03/11 12:05:40;;;;;;;;;;;;;;;5.63;44.04;99464.25;5114375;28;19923;-71
2021/03/11 12:08:08;;;;;;;;;;;;;;;5.63;43.85;99470.19;5115611;28;19968;-72
2021/03/11 12:10:37;;;;;;;;;;;;;;;5.64;44.36;99468.50;5115865;28;20370;-72
2021/03/11 12:13:07;;;;;;;;;;;;;;;5.66;44.19;99456.72;5115476;28;19963;-71
2021/03/11 12:15:35;;;;;;;;;;;;;;;5.69;43.95;99456.75;5115655;28;20384;-72
2021/03/11 12:18:03;;;;;;;;;;;;;;;5.75;43.66;99454.31;5114160;28;19962;-72
2021/03/11 12:20:34;;;;;;;;;;;;;;;5.80;43.90;99450.19;5115713;28;19946;-72
2021/03/11 12:23:03;;;;;;;;;;;;;;;5.88;44.25;99443.56;5115299;27;20270;-71
2021/03/11 12:25:31;;;;;;;;;;;;;;;5.92;44.32;99445.31;5115199;28;19930;-71
2021/03/11 12:27:59;;;;;;;;;;;;;;;5.98;44.34;99445.38;5115344;28;19962;-72
2021/03/11 12:30:27;;;;;;;;;;;;;;;6.07;43.93;99440.44;5113923;28;20378;-71
2021/03/11 12:32:55;;;;;;;;;;;;;;;6.13;44.20;99448.13;5115413;28;19924;-72
2021/03/11 12:35:23;;;;;;;;;;;;;;;6.12;43.96;99443.88;5115157;28;20374;-71
2021/03/11 12:37:51;;;;;;;;;;;;;;;6.12;44.34;99443.88;5114994;28;20422;-72
2021/03/11 12:40:20;;;;;;;;;;;;;;;6.17;44.28;99443.97;5114984;28;19928;-71
2021/03/11 12:42:48;;;;;;;;;;;;;;;6.19;44.60;99460.88;5114975;28;19923;-72
2021/03/11 12:45:17;;;;;;;;;;;;;;;6.20;44.52;99461.72;5114045;28;19930;-71
2021/03/11 12:47:45;;;;;;;;;;;;;;;6.17;44.58;99465.06;5114807;28;19930;-71
2021/03/11 12:50:19;;;;;;;;;;;;;;;6.11;44.26;99446.41;5115025;28;20446;-72
2021/03/11 12:52:49;;;;;;;;;;;;;;;6.08;44.61;99459.88;5115657;28;19923;-71
2021/03/11 12:55:17;;;;;;;;;;;;;;;6.02;45.38;99452.22;5130756;27;19927;-71
2021/03/11 12:57:48;;;;;;;;;;;;;;;6.01;45.22;99461.50;5135482;27;20266;-72
2021/03/11 13:00:22;;;;;;;;;;;;;;;5.99;45.50;99464.84;5136034;27;19930;-72